createdAt,value
2022-10-19T00:02:17.544Z,15.40
2022-10-19T00:05:05.320Z,15.40
2022-10-19T00:07:52.908Z,15.40
2022-10-19T00:10:41.982Z,15.40
2022-10-19T00:13:29.539Z,15.40
2022-10-19T00:16:18.967Z,15.50
2022-10-19T00:19:09.372Z,15.40
2022-10-19T00:21:57.024Z,15.50
2022-10-19T00:24:44.501Z,15.50
2022-10-19T00:27:31.949Z,15.50
2022-10-19T00:30:19.482Z,15.50
2022-10-19T00:33:06.679Z,15.40
2022-10-19T00:35:54.312Z,15.40
2022-10-19T00:38:43.209Z,15.30
2022-10-19T00:41:33.217Z,15.30
2022-10-19T00:44:23.819Z,15.20
2022-10-19T00:47:11.399Z,15.20
2022-10-19T00:49:59.748Z,15.20
2022-10-19T00:52:47.662Z,15.20
2022-10-19T00:55:35.800Z,15.20
2022-10-19T00:58:23.178Z,15.20
2022-10-19T01:01:13.281Z,15.20
2022-10-19T01:04:01.741Z,15.10
2022-10-19T01:06:49.278Z,15.10
2022-10-19T01:09:36.803Z,15.00
2022-10-19T01:12:39.452Z,15.00
2022-10-19T01:15:35.338Z,15.00
2022-10-19T01:18:25.778Z,15.00
2022-10-19T01:21:28.279Z,14.90
2022-10-19T01:24:43.064Z,14.80
2022-10-19T01:27:48.565Z,14.90
2022-10-19T01:30:54.071Z,14.90
2022-10-19T01:33:53.357Z,14.90
2022-10-19T01:36:46.692Z,14.90
2022-10-19T01:39:49.124Z,14.90
2022-10-19T01:43:01.577Z,14.80
2022-10-19T01:45:55.369Z,14.90
2022-10-19T01:48:46.051Z,14.90
2022-10-19T01:51:36.693Z,14.90
2022-10-19T01:54:27.473Z,14.90
2022-10-19T01:57:20.254Z,14.90
2022-10-19T02:00:10.249Z,14.80
2022-10-19T02:02:58.229Z,14.60
2022-10-19T02:05:46.632Z,14.40
2022-10-19T02:08:45.691Z,14.30
2022-10-19T02:11:33.262Z,14.30
2022-10-19T02:14:23.719Z,14.20
2022-10-19T02:17:14.220Z,14.10
2022-10-19T02:20:02.682Z,13.90
2022-10-19T02:22:50.666Z,13.70
2022-10-19T02:25:38.326Z,13.70
2022-10-19T02:28:27.027Z,13.70
2022-10-19T02:31:14.731Z,13.70
2022-10-19T02:34:04.415Z,13.80
2022-10-19T02:36:52.345Z,13.80
2022-10-19T02:39:40.619Z,13.80
2022-10-19T02:42:48.715Z,13.90
2022-10-19T02:45:51.168Z,14.00
2022-10-19T02:48:41.292Z,14.10
2022-10-19T02:51:31.032Z,14.20
2022-10-19T02:54:18.597Z,14.30
2022-10-19T02:57:24.076Z,14.40
2022-10-19T03:00:12.787Z,14.50
2022-10-19T03:03:00.299Z,14.60
2022-10-19T03:05:48.007Z,14.70
2022-10-19T03:08:35.409Z,14.70
2022-10-19T03:11:22.675Z,14.70
2022-10-19T03:14:09.948Z,14.80
2022-10-19T03:16:57.284Z,14.90
2022-10-19T03:19:44.751Z,14.90
2022-10-19T03:22:32.166Z,14.90
2022-10-19T03:25:19.825Z,14.90
2022-10-19T03:28:06.959Z,14.80
2022-10-19T03:30:54.225Z,14.80
2022-10-19T03:33:41.629Z,14.80
2022-10-19T03:36:31.413Z,14.80
2022-10-19T03:39:19.347Z,14.70
2022-10-19T03:42:06.821Z,14.60
2022-10-19T03:44:54.202Z,14.50
2022-10-19T03:47:41.558Z,14.40
2022-10-19T03:50:28.951Z,14.40
2022-10-19T03:53:16.451Z,14.30
2022-10-19T03:56:09.276Z,14.20
2022-10-19T03:58:58.125Z,14.00
2022-10-19T04:01:46.970Z,13.80
2022-10-19T04:04:34.418Z,13.60
2022-10-19T04:07:40.956Z,13.60
2022-10-19T04:10:28.268Z,13.30
2022-10-19T04:13:15.942Z,13.20
2022-10-19T04:16:03.815Z,13.20
2022-10-19T04:18:51.720Z,13.20
2022-10-19T04:21:40.648Z,13.20
2022-10-19T04:24:28.131Z,13.20
2022-10-19T04:27:18.237Z,13.10
2022-10-19T04:30:06.022Z,13.10
2022-10-19T04:32:53.446Z,13.20
2022-10-19T04:35:40.672Z,13.20
2022-10-19T04:38:29.349Z,13.10
2022-10-19T04:41:18.750Z,13.10
2022-10-19T04:44:07.454Z,13.10
2022-10-19T04:46:54.613Z,13.10
2022-10-19T04:49:42.015Z,13.10
2022-10-19T04:52:29.350Z,13.20
2022-10-19T04:55:16.512Z,13.20
2022-10-19T04:58:04.110Z,13.20
2022-10-19T05:00:52.190Z,13.10
2022-10-19T05:03:39.560Z,13.00
2022-10-19T05:06:27.288Z,13.00
2022-10-19T05:11:52.100Z,12.90
2022-10-19T05:14:42.636Z,12.90
2022-10-19T05:17:32.969Z,12.90
2022-10-19T05:20:20.749Z,12.80
2022-10-19T05:23:08.084Z,13.00
2022-10-19T05:26:07.430Z,13.10
2022-10-19T05:29:02.237Z,13.20
2022-10-19T05:31:49.749Z,13.20
2022-10-19T05:34:37.271Z,13.20
2022-10-19T05:37:25.597Z,13.20
2022-10-19T05:40:12.911Z,13.20
2022-10-19T05:43:00.181Z,13.20
2022-10-19T05:45:47.260Z,13.30
2022-10-19T05:48:35.378Z,13.40
2022-10-19T05:51:24.611Z,13.50
2022-10-19T05:54:13.586Z,13.60
2022-10-19T05:57:01.000Z,13.70
2022-10-19T05:59:48.492Z,13.80
2022-10-19T06:02:35.584Z,13.90
2022-10-19T06:05:22.890Z,14.00
2022-10-19T06:08:10.103Z,14.00
2022-10-19T06:11:11.519Z,14.10
2022-10-19T06:14:00.819Z,14.10
2022-10-19T06:16:48.332Z,14.10
2022-10-19T06:19:35.494Z,14.20
2022-10-19T06:22:22.924Z,14.20
2022-10-19T06:25:10.570Z,14.10
2022-10-19T06:28:01.430Z,14.10
2022-10-19T06:30:48.665Z,14.00
2022-10-19T06:33:36.253Z,14.00
2022-10-19T06:36:25.862Z,14.00
2022-10-19T06:39:13.486Z,14.00
2022-10-19T06:42:00.971Z,14.00
2022-10-19T06:44:48.256Z,13.90
2022-10-19T06:47:36.669Z,13.90
2022-10-19T06:50:24.555Z,13.90
2022-10-19T06:53:11.661Z,14.00
2022-10-19T06:56:03.466Z,14.00
2022-10-19T06:58:50.933Z,14.00
2022-10-19T07:01:38.550Z,14.00
2022-10-19T07:04:25.700Z,14.00
2022-10-19T07:07:13.496Z,14.00
2022-10-19T07:10:00.683Z,14.00
2022-10-19T07:12:47.979Z,14.00
2022-10-19T07:15:35.537Z,14.10
2022-10-19T07:18:22.803Z,14.10
2022-10-19T07:21:12.715Z,14.10
2022-10-19T07:24:00.096Z,14.10
2022-10-19T07:26:47.317Z,14.10
2022-10-19T07:29:35.006Z,14.30
2022-10-19T07:32:22.255Z,14.50
2022-10-19T07:35:09.545Z,14.60
2022-10-19T07:37:56.826Z,14.60
2022-10-19T07:40:46.560Z,14.70
2022-10-19T07:43:34.623Z,14.80
2022-10-19T07:46:25.345Z,14.80
2022-10-19T07:49:17.212Z,15.00
2022-10-19T07:52:04.229Z,14.90
2022-10-19T07:54:52.530Z,15.00
2022-10-19T07:57:41.567Z,15.10
2022-10-19T08:00:29.619Z,15.20
2022-10-19T08:04:13.716Z,15.20
2022-10-19T08:06:09.210Z,15.20
2022-10-19T08:08:57.130Z,15.30
2022-10-19T08:11:44.431Z,15.20
2022-10-19T08:14:32.321Z,15.20
2022-10-19T08:17:19.739Z,15.40
2022-10-19T08:20:08.477Z,15.40
2022-10-19T08:22:58.821Z,15.30
2022-10-19T08:25:44.848Z,15.40
2022-10-19T08:28:31.677Z,15.50
2022-10-19T08:31:21.643Z,15.70
2022-10-19T08:34:09.415Z,15.90
2022-10-19T08:36:56.761Z,15.90
2022-10-19T08:39:44.257Z,15.70
2022-10-19T08:42:37.570Z,15.80
2022-10-19T08:45:43.357Z,16.00
2022-10-19T08:48:33.048Z,15.90
2022-10-19T08:51:20.315Z,15.90
2022-10-19T08:54:12.085Z,15.70
2022-10-19T08:57:05.443Z,15.90
2022-10-19T09:00:10.972Z,15.90
2022-10-19T09:03:54.386Z,16.10
2022-10-19T09:06:38.205Z,16.50
2022-10-19T09:09:26.591Z,16.50
2022-10-19T09:12:16.848Z,16.60
2022-10-19T09:15:07.695Z,16.90
2022-10-19T09:17:55.455Z,16.70
2022-10-19T09:20:49.148Z,16.80
2022-10-19T09:23:39.707Z,17.00
2022-10-19T09:26:32.762Z,17.00
2022-10-19T09:29:29.316Z,16.70
2022-10-19T09:32:19.655Z,17.00
2022-10-19T09:35:22.618Z,17.00
2022-10-19T09:38:13.192Z,17.20
2022-10-19T09:41:03.953Z,17.50
2022-10-19T09:43:54.736Z,17.30
2022-10-19T09:46:57.575Z,16.90
2022-10-19T09:49:47.762Z,16.80
2022-10-19T09:52:40.880Z,17.00
2022-10-19T09:55:37.758Z,17.00
2022-10-19T09:58:32.073Z,17.40
2022-10-19T10:01:41.831Z,17.80
2022-10-19T10:04:23.703Z,17.80
2022-10-19T10:07:17.385Z,17.80
2022-10-19T10:10:13.696Z,17.70
2022-10-19T10:13:01.764Z,17.90
2022-10-19T10:15:52.116Z,18.00
2022-10-19T10:18:42.579Z,18.30
2022-10-19T10:21:34.054Z,18.20
2022-10-19T10:24:23.816Z,18.40
2022-10-19T10:27:14.157Z,18.80
2022-10-19T10:30:02.793Z,18.70
2022-10-19T10:32:53.158Z,18.30
2022-10-19T10:35:40.783Z,18.20
2022-10-19T10:38:31.151Z,18.00
2022-10-19T10:41:22.449Z,17.80
2022-10-19T10:44:21.423Z,17.60
2022-10-19T10:47:12.261Z,18.10
2022-10-19T10:50:03.637Z,18.40
2022-10-19T10:52:59.969Z,18.70
2022-10-19T10:55:50.264Z,18.90
2022-10-19T10:58:47.900Z,19.00
2022-10-19T11:01:38.492Z,18.60
2022-10-19T11:04:28.995Z,18.90
2022-10-19T11:07:41.328Z,18.70
2022-10-19T11:10:37.817Z,19.10
2022-10-19T11:13:55.089Z,19.00
2022-10-19T11:16:45.445Z,19.00
2022-10-19T11:19:35.977Z,18.70
2022-10-19T11:22:35.982Z,18.60
2022-10-19T11:25:32.108Z,18.40
2022-10-19T11:28:25.415Z,18.60
2022-10-19T11:31:30.480Z,18.70
2022-10-19T11:34:40.726Z,19.20
2022-10-19T11:37:50.211Z,20.00
2022-10-19T11:41:16.767Z,20.60
2022-10-19T11:44:18.443Z,20.30
2022-10-19T11:47:28.583Z,19.70
2022-10-19T11:50:33.793Z,19.70
2022-10-19T11:53:24.085Z,19.50
2022-10-19T11:56:20.288Z,19.50
2022-10-19T11:59:22.842Z,19.30
2022-10-19T12:02:16.120Z,18.70
2022-10-19T12:05:06.446Z,18.80
2022-10-19T12:08:16.486Z,18.80
2022-10-19T12:11:27.565Z,18.90
2022-10-19T12:14:17.871Z,19.30
2022-10-19T12:17:17.321Z,19.50
2022-10-19T12:20:18.999Z,19.70
2022-10-19T12:23:08.353Z,19.80
2022-10-19T12:25:58.117Z,19.70
2022-10-19T12:28:51.669Z,19.70
2022-10-19T12:31:39.593Z,19.80
2022-10-19T12:34:52.652Z,19.50
2022-10-19T12:37:45.726Z,19.10
2022-10-19T12:40:52.559Z,18.60
2022-10-19T12:43:49.186Z,18.60
2022-10-19T12:46:56.423Z,18.90
2022-10-19T12:49:56.600Z,19.20
2022-10-19T12:52:48.217Z,19.30
2022-10-19T12:55:35.490Z,19.20
2022-10-19T12:58:24.539Z,19.20
2022-10-19T13:01:18.095Z,19.00
2022-10-19T13:04:17.363Z,19.10
2022-10-19T13:07:10.702Z,19.00
2022-10-19T13:10:04.219Z,19.40
2022-10-19T13:12:52.650Z,19.60
2022-10-19T13:15:42.859Z,19.70
2022-10-19T13:19:02.212Z,19.70
2022-10-19T13:21:55.189Z,19.80
2022-10-19T13:24:42.467Z,19.90
2022-10-19T13:27:32.965Z,19.80
2022-10-19T13:30:43.209Z,19.70
2022-10-19T13:33:34.702Z,19.20
2022-10-19T13:36:23.742Z,19.10
2022-10-19T13:39:14.002Z,19.20
2022-10-19T13:42:01.504Z,19.30
2022-10-19T13:44:50.873Z,19.40
2022-10-19T13:47:41.161Z,19.40
2022-10-19T13:50:34.826Z,19.40
2022-10-19T13:53:38.226Z,19.50
2022-10-19T13:56:40.243Z,19.50
2022-10-19T13:59:50.428Z,19.50
2022-10-19T14:02:45.328Z,19.40
2022-10-19T14:05:53.852Z,19.30
2022-10-19T14:08:56.502Z,19.30
2022-10-19T14:11:46.879Z,19.30
2022-10-19T14:17:34.153Z,19.30
2022-10-19T14:20:39.717Z,19.40
2022-10-19T14:23:32.373Z,19.40
2022-10-19T14:26:22.354Z,19.40
2022-10-19T14:29:12.424Z,19.40
2022-10-19T14:32:00.740Z,19.30
2022-10-19T14:34:49.445Z,19.30
2022-10-19T14:37:38.153Z,19.40
2022-10-19T14:40:31.152Z,19.30
2022-10-19T14:43:27.407Z,19.30
2022-10-19T14:46:16.621Z,19.30
2022-10-19T14:49:06.261Z,19.40
2022-10-19T14:51:57.996Z,19.30
2022-10-19T14:54:48.401Z,19.40
2022-10-19T14:57:38.557Z,19.40
2022-10-19T15:03:16.652Z,19.20
2022-10-19T15:06:09.237Z,19.20
2022-10-19T15:09:09.397Z,19.00
2022-10-19T15:11:56.745Z,19.00
2022-10-19T15:14:44.844Z,18.90
2022-10-19T15:17:36.300Z,18.70
2022-10-19T15:20:26.955Z,18.70
2022-10-19T15:23:35.631Z,18.60
2022-10-19T15:26:28.798Z,18.40
2022-10-19T15:29:25.568Z,18.30
2022-10-19T15:32:18.832Z,18.30
2022-10-19T15:35:18.077Z,18.40
2022-10-19T15:38:17.024Z,18.40
2022-10-19T15:41:05.132Z,18.30
2022-10-19T15:43:54.943Z,18.30
2022-10-19T15:46:50.921Z,18.20
2022-10-19T15:49:46.923Z,18.10
2022-10-19T15:52:34.832Z,18.00
2022-10-19T15:55:22.030Z,18.00
2022-10-19T15:58:12.057Z,17.90
2022-10-19T16:00:59.279Z,17.80
2022-10-19T16:03:47.083Z,17.70
2022-10-19T16:06:37.209Z,17.60
2022-10-19T16:09:24.416Z,17.40
2022-10-19T16:12:12.458Z,17.30
2022-10-19T16:15:00.008Z,17.30
2022-10-19T16:17:50.205Z,17.20
2022-10-19T16:20:38.973Z,17.20
2022-10-19T16:23:27.224Z,17.10
2022-10-19T16:26:18.190Z,17.00
2022-10-19T16:29:05.651Z,17.00
2022-10-19T16:31:52.930Z,16.90
2022-10-19T16:34:41.281Z,16.90
2022-10-19T16:37:28.917Z,16.90
2022-10-19T16:40:19.276Z,17.00
2022-10-19T16:43:06.883Z,16.90
2022-10-19T16:45:54.393Z,17.00
2022-10-19T16:48:41.446Z,17.00
2022-10-19T16:51:40.460Z,17.00
2022-10-19T16:54:30.069Z,17.00
2022-10-19T16:57:17.537Z,17.00
2022-10-19T17:00:06.724Z,17.00
2022-10-19T17:02:54.408Z,16.80
2022-10-19T17:05:41.633Z,16.80
2022-10-19T17:08:36.658Z,16.70
2022-10-19T17:11:35.286Z,16.60
2022-10-19T17:14:22.984Z,16.50
2022-10-19T17:17:12.016Z,16.40
2022-10-19T17:19:59.560Z,16.20
2022-10-19T17:23:06.339Z,16.10
2022-10-19T17:25:53.461Z,15.90
2022-10-19T17:28:41.338Z,15.80
2022-10-19T17:31:29.643Z,15.60
2022-10-19T17:34:17.595Z,15.60
2022-10-19T17:37:05.060Z,15.50
2022-10-19T17:39:52.819Z,15.50
2022-10-19T17:42:40.241Z,15.40
2022-10-19T17:45:27.424Z,15.30
2022-10-19T17:48:14.925Z,15.20
2022-10-19T17:51:07.611Z,15.20
2022-10-19T17:53:57.593Z,15.10
2022-10-19T17:56:45.615Z,15.00
2022-10-19T17:59:46.692Z,14.90
2022-10-19T18:02:22.098Z,14.90
2022-10-19T18:05:10.116Z,14.90
2022-10-19T18:07:57.629Z,14.80
2022-10-19T18:10:44.870Z,14.70
2022-10-19T18:13:32.956Z,14.60
2022-10-19T18:16:24.160Z,14.50
2022-10-19T18:19:12.488Z,14.50
2022-10-19T18:22:00.047Z,14.50
2022-10-19T18:24:47.524Z,14.50
2022-10-19T18:27:36.388Z,14.50
2022-10-19T18:30:23.931Z,14.50
2022-10-19T18:33:11.699Z,14.40
2022-10-19T18:36:00.003Z,14.40
2022-10-19T18:38:52.289Z,14.30
2022-10-19T18:41:40.648Z,14.30
2022-10-19T18:44:30.502Z,14.30
2022-10-19T18:47:17.707Z,14.30
2022-10-19T18:50:05.054Z,14.30
2022-10-19T18:52:52.620Z,14.30
2022-10-19T18:55:40.261Z,14.30
2022-10-19T18:58:28.549Z,14.30
2022-10-19T19:01:18.480Z,14.20
2022-10-19T19:04:08.660Z,14.20
2022-10-19T19:06:55.891Z,14.10
2022-10-19T19:09:43.732Z,14.10
2022-10-19T19:12:31.166Z,14.10
2022-10-19T19:15:19.788Z,14.10
2022-10-19T19:18:07.319Z,14.10
2022-10-19T19:20:55.109Z,14.10
2022-10-19T19:23:42.642Z,14.10
2022-10-19T19:26:33.130Z,14.10
2022-10-19T19:29:21.982Z,14.10
2022-10-19T19:32:09.565Z,14.00
2022-10-19T19:34:57.073Z,14.10
2022-10-19T19:37:44.604Z,14.00
2022-10-19T19:40:31.940Z,14.00
2022-10-19T19:43:20.003Z,14.00
2022-10-19T19:46:12.445Z,14.00
2022-10-19T19:49:04.960Z,14.00
2022-10-19T19:51:52.883Z,14.00
2022-10-19T19:54:40.158Z,14.00
2022-10-19T19:57:27.595Z,14.00
2022-10-19T20:00:16.375Z,14.00
2022-10-19T20:03:03.795Z,14.00
2022-10-19T20:05:51.017Z,13.90
2022-10-19T20:08:38.550Z,13.90
2022-10-19T20:11:28.501Z,13.90
2022-10-19T20:14:15.857Z,14.00
2022-10-19T20:17:03.361Z,13.90
2022-10-19T20:19:50.968Z,13.90
2022-10-19T20:22:38.543Z,13.90
2022-10-19T20:25:25.982Z,13.80
2022-10-19T20:28:13.385Z,13.80
2022-10-19T20:31:09.442Z,13.80
2022-10-19T20:33:56.442Z,13.80
2022-10-19T20:36:44.121Z,13.80
2022-10-19T20:39:31.385Z,13.70
2022-10-19T20:42:19.802Z,13.70
2022-10-19T20:45:07.777Z,13.70
2022-10-19T20:47:55.382Z,13.60
2022-10-19T20:50:42.871Z,13.70
2022-10-19T20:53:30.342Z,13.70
2022-10-19T20:56:22.249Z,13.70
2022-10-19T20:59:18.274Z,13.80
2022-10-19T21:02:05.856Z,13.80
2022-10-19T21:04:53.022Z,13.80
2022-10-19T21:07:40.381Z,13.70
2022-10-19T21:10:27.688Z,13.70
2022-10-19T21:13:14.986Z,13.70
2022-10-19T21:16:14.568Z,13.70
2022-10-19T21:19:03.340Z,13.60
2022-10-19T21:21:55.250Z,13.70
2022-10-19T21:24:42.905Z,13.70
2022-10-19T21:27:30.363Z,13.60
2022-10-19T21:30:17.979Z,13.60
2022-10-19T21:33:05.498Z,13.60
2022-10-19T21:35:52.730Z,13.60
2022-10-19T21:38:40.336Z,13.60
2022-10-19T21:41:27.801Z,13.70
2022-10-19T21:44:16.066Z,13.60
2022-10-19T21:47:03.244Z,13.50
2022-10-19T21:49:50.651Z,13.40
2022-10-19T21:52:37.821Z,13.40
2022-10-19T21:55:29.571Z,13.40
2022-10-19T21:58:17.376Z,13.30
2022-10-19T22:01:06.744Z,13.30
2022-10-19T22:04:02.810Z,13.40
2022-10-19T22:06:50.880Z,13.40
2022-10-19T22:09:38.295Z,13.40
2022-10-19T22:12:25.742Z,13.40
2022-10-19T22:15:12.991Z,13.30
2022-10-19T22:18:00.539Z,13.20
2022-10-19T22:20:47.822Z,13.10
2022-10-19T22:23:35.908Z,13.20
2022-10-19T22:26:26.493Z,13.10
2022-10-19T22:29:14.464Z,13.10
2022-10-19T22:32:01.606Z,13.00
2022-10-19T22:34:49.083Z,13.00
2022-10-19T22:37:36.435Z,12.90
2022-10-19T22:40:25.455Z,12.90
2022-10-19T22:43:12.895Z,12.80
2022-10-19T22:46:00.146Z,12.70
2022-10-19T22:48:47.463Z,12.80
2022-10-19T22:51:35.370Z,12.80
2022-10-19T22:54:22.555Z,12.70
2022-10-19T22:57:11.909Z,12.70
2022-10-19T22:59:59.180Z,12.60
2022-10-19T23:02:46.567Z,12.60
2022-10-19T23:05:33.793Z,12.50
2022-10-19T23:08:21.162Z,12.50
2022-10-19T23:11:08.992Z,12.50
2022-10-19T23:13:56.207Z,12.40
2022-10-19T23:16:43.183Z,12.40
2022-10-19T23:19:30.710Z,12.30
2022-10-19T23:22:18.094Z,12.30
2022-10-19T23:25:06.071Z,12.30
2022-10-19T23:27:53.261Z,12.30
2022-10-19T23:30:40.688Z,12.30
2022-10-19T23:33:27.870Z,12.20
2022-10-19T23:36:19.340Z,12.30
2022-10-19T23:39:07.408Z,12.20
2022-10-19T23:41:54.887Z,12.10
2022-10-19T23:44:42.478Z,12.10
2022-10-19T23:47:29.748Z,12.10
2022-10-19T23:50:17.245Z,12.00
2022-10-19T23:53:04.924Z,12.00
2022-10-19T23:55:52.142Z,12.00
2022-10-19T23:58:39.129Z,11.90
